createdAt,value
2022-12-18T00:00:13.466Z,87.20
2022-12-18T00:01:14.154Z,87.73
2022-12-18T00:02:13.917Z,87.41
2022-12-18T00:03:13.678Z,87.20
2022-12-18T00:04:13.774Z,86.99
2022-12-18T00:05:13.423Z,87.10
2022-12-18T00:06:13.377Z,87.05
2022-12-18T00:07:13.344Z,86.85
2022-12-18T00:08:13.352Z,86.74
2022-12-18T00:09:13.546Z,86.63
2022-12-18T00:10:15.263Z,86.88
2022-12-18T00:11:13.307Z,87.20
2022-12-18T00:13:13.334Z,87.52
2022-12-18T00:14:13.341Z,87.87
2022-12-18T00:15:13.230Z,88.08
2022-12-18T00:16:13.487Z,88.40
2022-12-18T00:17:13.228Z,88.50
2022-12-18T00:18:16.106Z,88.65
2022-12-18T00:19:14.146Z,88.96
2022-12-18T00:20:13.374Z,89.53
2022-12-18T00:21:14.175Z,90.06
2022-12-18T00:22:13.104Z,90.16
2022-12-18T00:23:13.974Z,90.55
2022-12-18T00:24:13.138Z,90.69
2022-12-18T00:25:13.082Z,90.44
2022-12-18T00:26:13.051Z,89.91
2022-12-18T00:27:13.096Z,90.16
2022-12-18T00:28:13.020Z,90.16
2022-12-18T00:29:13.049Z,90.26
2022-12-18T00:30:13.011Z,90.26
2022-12-18T00:31:13.082Z,90.23
2022-12-18T00:32:12.979Z,90.23
2022-12-18T00:33:13.040Z,89.98
2022-12-18T00:34:13.076Z,89.76
2022-12-18T00:35:13.502Z,89.56
2022-12-18T00:36:12.998Z,89.09
2022-12-18T00:37:18.273Z,88.78
2022-12-18T00:38:13.919Z,88.46
2022-12-18T00:39:13.051Z,87.93
2022-12-18T00:40:12.893Z,87.58
2022-12-18T00:41:12.901Z,87.27
2022-12-18T00:42:12.900Z,87.16
2022-12-18T00:43:12.840Z,87.05
2022-12-18T00:44:13.059Z,86.95
2022-12-18T00:45:13.413Z,87.10
2022-12-18T00:46:12.934Z,87.30
2022-12-18T00:47:12.851Z,87.41
2022-12-18T00:48:13.757Z,87.62
2022-12-18T00:49:12.756Z,87.83
2022-12-18T00:50:12.758Z,87.73
2022-12-18T00:51:12.756Z,87.62
2022-12-18T00:52:12.834Z,87.52
2022-12-18T00:53:13.752Z,87.52
2022-12-18T00:54:12.867Z,87.16
2022-12-18T00:55:12.738Z,86.88
2022-12-18T00:56:12.713Z,86.78
2022-12-18T00:57:12.676Z,86.88
2022-12-18T00:58:12.777Z,87.05
2022-12-18T00:59:12.898Z,86.95
2022-12-18T01:00:12.750Z,86.63
2022-12-18T01:01:13.746Z,86.21
2022-12-18T01:02:12.760Z,86.21
2022-12-18T01:03:13.746Z,86.32
2022-12-18T01:04:13.324Z,86.32
2022-12-18T01:05:12.580Z,86.43
2022-12-18T01:06:12.638Z,86.63
2022-12-18T01:07:12.535Z,86.63
2022-12-18T01:08:12.643Z,86.63
2022-12-18T01:09:14.113Z,86.63
2022-12-18T01:10:12.586Z,86.63
2022-12-18T01:11:12.503Z,86.78
2022-12-18T01:12:13.374Z,86.88
2022-12-18T01:13:13.261Z,86.88
2022-12-18T01:14:12.501Z,87.10
2022-12-18T01:15:12.600Z,87.30
2022-12-18T01:16:12.508Z,87.30
2022-12-18T01:17:12.437Z,87.10
2022-12-18T01:18:13.030Z,86.88
2022-12-18T01:19:12.421Z,87.10
2022-12-18T01:20:12.402Z,87.10
2022-12-18T01:21:12.403Z,86.99
2022-12-18T01:22:13.886Z,87.10
2022-12-18T01:23:12.385Z,87.55
2022-12-18T01:24:12.381Z,87.98
2022-12-18T01:25:12.334Z,87.98
2022-12-18T01:26:12.328Z,87.98
2022-12-18T01:27:12.339Z,88.18
2022-12-18T01:28:12.299Z,88.40
2022-12-18T01:29:12.334Z,88.60
2022-12-18T01:30:12.312Z,88.60
2022-12-18T01:31:12.302Z,88.50
2022-12-18T01:32:12.286Z,88.08
2022-12-18T01:33:12.229Z,88.40
2022-12-18T01:34:12.222Z,88.82
2022-12-18T01:35:12.183Z,88.92
2022-12-18T01:36:12.226Z,88.92
2022-12-18T01:37:12.157Z,88.71
2022-12-18T01:38:12.179Z,88.50
2022-12-18T01:39:12.192Z,88.25
2022-12-18T01:40:12.134Z,88.08
2022-12-18T01:41:12.116Z,88.08
2022-12-18T01:42:12.488Z,88.18
2022-12-18T01:43:12.082Z,88.40
2022-12-18T01:44:12.093Z,88.29
2022-12-18T01:45:12.208Z,87.98
2022-12-18T01:46:12.149Z,88.08
2022-12-18T01:47:12.828Z,88.08
2022-12-18T01:48:12.196Z,88.29
2022-12-18T01:49:12.028Z,88.35
2022-12-18T01:50:12.120Z,88.25
2022-12-18T01:51:12.738Z,88.25
2022-12-18T01:52:12.055Z,88.25
2022-12-18T01:53:11.988Z,88.35
2022-12-18T01:54:12.203Z,88.46
2022-12-18T01:55:11.975Z,88.46
2022-12-18T01:56:12.074Z,88.32
2022-12-18T01:57:11.924Z,88.00
2022-12-18T01:58:11.960Z,87.79
2022-12-18T01:59:11.884Z,87.58
2022-12-18T02:00:11.915Z,87.16
2022-12-18T02:01:11.898Z,86.85
2022-12-18T02:02:11.982Z,86.85
2022-12-18T02:03:11.890Z,86.99
2022-12-18T02:04:11.862Z,87.73
2022-12-18T02:05:11.909Z,88.29
2022-12-18T02:06:11.837Z,88.46
2022-12-18T02:07:11.784Z,88.57
2022-12-18T02:08:11.951Z,88.67
2022-12-18T02:09:11.777Z,88.35
2022-12-18T02:10:11.765Z,88.25
2022-12-18T02:11:12.444Z,88.04
2022-12-18T02:12:11.762Z,88.04
2022-12-18T02:13:11.733Z,88.10
2022-12-18T02:14:12.474Z,88.10
2022-12-18T02:15:11.684Z,88.21
2022-12-18T02:16:11.720Z,88.21
2022-12-18T02:17:11.651Z,88.10
2022-12-18T02:18:11.671Z,88.00
2022-12-18T02:19:11.658Z,87.96
2022-12-18T02:20:11.653Z,87.96
2022-12-18T02:21:11.614Z,87.75
2022-12-18T02:22:11.630Z,87.44
2022-12-18T02:23:11.588Z,87.12
2022-12-18T02:24:11.868Z,86.91
2022-12-18T02:25:12.029Z,87.02
2022-12-18T02:26:11.582Z,87.12
2022-12-18T02:27:11.537Z,87.12
2022-12-18T02:28:11.581Z,86.80
2022-12-18T02:29:11.534Z,87.48
2022-12-18T02:30:13.233Z,87.48
2022-12-18T02:31:11.542Z,87.58
2022-12-18T02:32:11.558Z,87.93
2022-12-18T02:33:11.451Z,88.35
2022-12-18T02:34:11.481Z,88.67
2022-12-18T02:35:11.439Z,88.78
2022-12-18T02:36:11.438Z,88.99
2022-12-18T02:37:11.591Z,88.84
2022-12-18T02:38:11.406Z,88.63
2022-12-18T02:39:11.394Z,88.42
2022-12-18T02:40:11.386Z,88.00
2022-12-18T02:41:11.500Z,87.68
2022-12-18T02:42:11.374Z,87.68
2022-12-18T02:43:11.437Z,87.79
2022-12-18T02:44:11.432Z,88.00
2022-12-18T02:45:18.399Z,88.00
2022-12-18T02:46:11.342Z,87.96
2022-12-18T02:47:11.337Z,87.65
2022-12-18T02:48:11.276Z,87.44
2022-12-18T02:49:11.284Z,87.44
2022-12-18T02:50:11.266Z,87.54
2022-12-18T02:51:11.273Z,87.44
2022-12-18T02:52:11.214Z,87.54
2022-12-18T02:53:11.243Z,87.54
2022-12-18T02:54:11.193Z,87.37
2022-12-18T02:55:11.201Z,87.37
2022-12-18T02:56:11.170Z,86.85
2022-12-18T02:57:11.201Z,86.63
2022-12-18T02:58:11.170Z,86.53
2022-12-18T02:59:11.160Z,86.43
2022-12-18T03:00:11.128Z,86.53
2022-12-18T03:01:11.215Z,86.53
2022-12-18T03:02:11.215Z,86.63
2022-12-18T03:03:11.168Z,86.95
2022-12-18T03:04:11.077Z,87.41
2022-12-18T03:05:11.094Z,87.62
2022-12-18T03:06:11.062Z,87.52
2022-12-18T03:07:11.094Z,87.62
2022-12-18T03:08:11.024Z,87.52
2022-12-18T03:09:11.032Z,87.27
2022-12-18T03:10:10.999Z,87.37
2022-12-18T03:11:11.001Z,87.58
2022-12-18T03:12:10.985Z,87.79
2022-12-18T03:13:11.028Z,87.79
2022-12-18T03:14:10.961Z,87.54
2022-12-18T03:15:15.943Z,87.27
2022-12-18T03:16:11.932Z,86.95
2022-12-18T03:17:10.967Z,87.05
2022-12-18T03:18:10.919Z,87.37
2022-12-18T03:19:10.946Z,87.68
2022-12-18T03:20:10.875Z,87.79
2022-12-18T03:21:10.894Z,88.00
2022-12-18T03:22:10.853Z,88.21
2022-12-18T03:23:10.895Z,88.32
2022-12-18T03:24:10.822Z,88.21
2022-12-18T03:25:10.839Z,88.21
2022-12-18T03:26:10.805Z,87.90
2022-12-18T03:27:10.818Z,88.00
2022-12-18T03:28:10.812Z,88.00
2022-12-18T03:29:10.793Z,87.90
2022-12-18T03:30:10.749Z,87.58
2022-12-18T03:31:10.809Z,87.58
2022-12-18T03:32:10.728Z,87.79
2022-12-18T03:33:10.769Z,87.79
2022-12-18T03:34:10.747Z,87.79
2022-12-18T03:35:10.720Z,87.79
2022-12-18T03:36:10.756Z,87.68
2022-12-18T03:37:10.703Z,87.37
2022-12-18T03:38:10.691Z,87.48
2022-12-18T03:39:10.661Z,87.37
2022-12-18T03:40:10.665Z,87.33
2022-12-18T03:41:10.631Z,87.23
2022-12-18T03:42:10.603Z,87.12
2022-12-18T03:43:10.631Z,87.12
2022-12-18T03:44:10.584Z,87.33
2022-12-18T03:45:10.649Z,87.54
2022-12-18T03:46:10.629Z,87.44
2022-12-18T03:47:10.561Z,87.23
2022-12-18T03:48:10.528Z,87.12
2022-12-18T03:49:10.538Z,87.23
2022-12-18T03:50:12.807Z,87.33
2022-12-18T03:51:10.540Z,87.33
2022-12-18T03:52:10.477Z,86.91
2022-12-18T03:53:10.484Z,86.70
2022-12-18T03:54:10.456Z,86.80
2022-12-18T03:55:10.473Z,87.02
2022-12-18T03:56:10.461Z,87.02
2022-12-18T03:57:10.467Z,86.60
2022-12-18T03:58:10.447Z,86.49
2022-12-18T03:59:10.446Z,86.70
2022-12-18T04:00:10.389Z,86.70
2022-12-18T04:01:10.452Z,86.70
2022-12-18T04:02:10.558Z,86.85
2022-12-18T04:03:10.434Z,87.05
2022-12-18T04:04:10.436Z,86.85
2022-12-18T04:05:10.338Z,86.85
2022-12-18T04:06:10.306Z,86.95
2022-12-18T04:07:10.326Z,87.16
2022-12-18T04:08:10.285Z,87.37
2022-12-18T04:09:10.285Z,87.48
2022-12-18T04:10:10.284Z,87.37
2022-12-18T04:11:10.273Z,87.33
2022-12-18T04:12:10.243Z,87.44
2022-12-18T04:13:10.291Z,87.44
2022-12-18T04:14:14.390Z,87.54
2022-12-18T04:15:11.221Z,87.65
2022-12-18T04:16:10.234Z,87.75
2022-12-18T04:17:10.212Z,87.65
2022-12-18T04:18:10.168Z,87.44
2022-12-18T04:19:10.197Z,87.54
2022-12-18T04:20:10.148Z,87.44
2022-12-18T04:21:10.165Z,87.23
2022-12-18T04:22:10.117Z,87.02
2022-12-18T04:23:10.125Z,86.49
2022-12-18T04:24:10.086Z,86.18
2022-12-18T04:25:10.135Z,86.18
2022-12-18T04:26:10.087Z,86.18
2022-12-18T04:27:10.082Z,86.18
2022-12-18T04:28:10.033Z,85.96
2022-12-18T04:29:10.093Z,85.75
2022-12-18T04:30:10.020Z,85.96
2022-12-18T04:31:10.064Z,86.18
2022-12-18T04:32:10.019Z,86.28
2022-12-18T04:33:10.022Z,86.43
2022-12-18T04:34:09.970Z,86.53
2022-12-18T04:35:09.999Z,86.95
2022-12-18T04:36:09.946Z,87.16
2022-12-18T04:37:09.946Z,87.48
2022-12-18T04:38:09.917Z,87.58
2022-12-18T04:39:09.935Z,87.44
2022-12-18T04:40:09.906Z,87.37
2022-12-18T04:41:09.934Z,87.05
2022-12-18T04:42:09.875Z,87.16
2022-12-18T04:43:09.968Z,87.37
2022-12-18T04:44:09.843Z,87.54
2022-12-18T04:45:09.864Z,87.54
2022-12-18T04:46:09.916Z,86.91
2022-12-18T04:47:09.852Z,86.60
2022-12-18T04:48:09.791Z,86.60
2022-12-18T04:49:09.823Z,86.70
2022-12-18T04:50:09.769Z,86.70
2022-12-18T04:51:09.809Z,86.49
2022-12-18T04:52:09.749Z,86.38
2022-12-18T04:53:09.761Z,86.07
2022-12-18T04:54:09.728Z,85.75
2022-12-18T04:55:09.717Z,85.55
2022-12-18T04:56:09.734Z,85.44
2022-12-18T04:57:09.685Z,85.55
2022-12-18T04:58:09.708Z,85.65
2022-12-18T04:59:09.656Z,85.75
2022-12-18T05:00:09.673Z,85.96
2022-12-18T05:01:09.644Z,85.96
2022-12-18T05:02:09.773Z,85.96
2022-12-18T05:03:09.612Z,86.07
2022-12-18T05:04:09.679Z,86.28
2022-12-18T05:05:09.579Z,86.28
2022-12-18T05:06:09.639Z,86.18
2022-12-18T05:07:09.558Z,85.82
2022-12-18T05:08:09.561Z,85.61
2022-12-18T05:09:09.538Z,85.44
2022-12-18T05:10:09.537Z,85.44
2022-12-18T05:11:09.513Z,85.44
2022-12-18T05:12:09.559Z,85.75
2022-12-18T05:13:09.484Z,85.65
2022-12-18T05:14:09.504Z,85.75
2022-12-18T05:15:09.453Z,86.07
2022-12-18T05:16:09.595Z,86.28
2022-12-18T05:17:09.442Z,86.49
2022-12-18T05:18:09.433Z,86.38
2022-12-18T05:19:09.411Z,86.28
2022-12-18T05:20:09.442Z,86.18
2022-12-18T05:21:09.419Z,86.28
2022-12-18T05:22:09.397Z,86.38
2022-12-18T05:23:09.360Z,86.49
2022-12-18T05:24:09.399Z,86.70
2022-12-18T05:25:09.337Z,86.80
2022-12-18T05:26:09.338Z,86.70
2022-12-18T05:27:09.336Z,86.60
2022-12-18T05:28:09.475Z,86.45
2022-12-18T05:29:09.284Z,86.24
2022-12-18T05:30:09.324Z,86.28
2022-12-18T05:31:09.291Z,86.45
2022-12-18T05:32:09.272Z,86.55
2022-12-18T05:33:09.270Z,86.66
2022-12-18T05:34:09.251Z,86.77
2022-12-18T05:35:09.214Z,87.12
2022-12-18T05:36:09.221Z,87.23
2022-12-18T05:37:09.193Z,87.02
2022-12-18T05:38:09.207Z,86.80
2022-12-18T05:39:09.187Z,87.02
2022-12-18T05:40:09.177Z,87.19
2022-12-18T05:41:09.139Z,87.40
2022-12-18T05:42:09.146Z,87.71
2022-12-18T05:43:09.145Z,87.50
2022-12-18T05:44:09.170Z,87.29
2022-12-18T05:45:09.095Z,87.08
2022-12-18T05:46:09.244Z,86.87
2022-12-18T05:47:09.081Z,86.66
2022-12-18T05:48:09.084Z,86.45
2022-12-18T05:49:09.063Z,86.55
2022-12-18T05:50:09.050Z,86.66
2022-12-18T05:51:09.020Z,86.87
2022-12-18T05:52:09.030Z,87.08
2022-12-18T05:53:08.998Z,87.19
2022-12-18T05:54:09.032Z,87.19
2022-12-18T05:55:08.970Z,87.19
2022-12-18T05:56:08.977Z,87.29
2022-12-18T05:57:08.956Z,87.29
2022-12-18T05:58:08.946Z,87.19
2022-12-18T05:59:08.925Z,87.29
2022-12-18T06:00:08.973Z,87.29
2022-12-18T06:01:08.893Z,87.19
2022-12-18T06:02:09.148Z,87.12
2022-12-18T06:03:08.992Z,87.23
2022-12-18T06:04:09.030Z,87.44
2022-12-18T06:05:08.846Z,87.75
2022-12-18T06:06:08.853Z,87.96
2022-12-18T06:07:08.824Z,87.92
2022-12-18T06:08:08.830Z,88.02
2022-12-18T06:09:08.798Z,87.82
2022-12-18T06:10:08.849Z,88.02
2022-12-18T06:11:08.768Z,88.34
2022-12-18T06:12:08.809Z,88.13
2022-12-18T06:13:08.744Z,88.24
2022-12-18T06:14:08.777Z,88.34
2022-12-18T06:15:08.715Z,88.45
2022-12-18T06:16:08.792Z,88.45
2022-12-18T06:17:08.724Z,88.45
2022-12-18T06:18:08.702Z,88.24
2022-12-18T06:19:08.673Z,88.02
2022-12-18T06:20:08.672Z,87.71
2022-12-18T06:21:08.642Z,87.50
2022-12-18T06:22:08.657Z,87.29
2022-12-18T06:23:08.653Z,87.29
2022-12-18T06:24:08.630Z,87.29
2022-12-18T06:25:08.610Z,87.40
2022-12-18T06:26:08.608Z,87.50
2022-12-18T06:27:08.597Z,87.40
2022-12-18T06:28:08.575Z,87.60
2022-12-18T06:29:08.576Z,87.60
2022-12-18T06:30:08.585Z,87.60
2022-12-18T06:31:08.590Z,87.82
2022-12-18T06:32:08.556Z,88.02
2022-12-18T06:33:08.505Z,87.92
2022-12-18T06:34:08.513Z,87.71
2022-12-18T06:35:08.492Z,87.40
2022-12-18T06:36:08.479Z,87.08
2022-12-18T06:37:08.422Z,86.83
2022-12-18T06:38:08.471Z,86.72
2022-12-18T06:39:08.442Z,86.66
2022-12-18T06:40:08.438Z,86.62
2022-12-18T06:41:08.350Z,86.62
2022-12-18T06:42:08.356Z,86.62
2022-12-18T06:43:08.398Z,86.41
2022-12-18T06:44:08.387Z,86.45
2022-12-18T06:45:08.346Z,86.45
2022-12-18T06:46:08.423Z,86.66
2022-12-18T06:47:08.325Z,86.98
2022-12-18T06:48:08.365Z,86.98
2022-12-18T06:49:08.283Z,87.08
2022-12-18T06:50:08.305Z,86.87
2022-12-18T06:51:08.342Z,86.77
2022-12-18T06:52:08.292Z,86.98
2022-12-18T06:53:08.280Z,86.98
2022-12-18T06:54:08.232Z,86.98
2022-12-18T06:55:08.231Z,87.19
2022-12-18T06:56:10.585Z,87.29
2022-12-18T06:57:08.149Z,87.60
2022-12-18T06:58:08.167Z,87.82
2022-12-18T06:59:08.150Z,87.82
2022-12-18T07:00:08.139Z,87.92
2022-12-18T07:01:08.217Z,87.40
2022-12-18T07:02:08.272Z,87.60
2022-12-18T07:03:08.140Z,87.82
2022-12-18T07:04:08.087Z,88.02
2022-12-18T07:05:10.958Z,88.02
2022-12-18T07:06:08.083Z,87.92
2022-12-18T07:07:08.038Z,88.17
2022-12-18T07:08:08.042Z,88.80
2022-12-18T07:09:08.011Z,88.91
2022-12-18T07:10:08.038Z,88.91
2022-12-18T07:11:07.982Z,88.80
2022-12-18T07:12:08.001Z,88.70
2022-12-18T07:13:07.949Z,88.70
2022-12-18T07:14:07.965Z,88.70
2022-12-18T07:15:07.931Z,88.49
2022-12-18T07:16:15.003Z,88.74
2022-12-18T07:17:08.987Z,89.01
2022-12-18T07:18:07.907Z,89.32
2022-12-18T07:19:07.908Z,89.22
2022-12-18T07:20:07.901Z,88.80
2022-12-18T07:21:07.875Z,88.70
2022-12-18T07:22:07.883Z,88.59
2022-12-18T07:23:07.834Z,88.49
2022-12-18T07:24:07.844Z,88.38
2022-12-18T07:25:07.831Z,88.24
2022-12-18T07:26:07.840Z,88.34
2022-12-18T07:27:08.054Z,88.34
2022-12-18T07:28:10.518Z,88.02
2022-12-18T07:29:08.750Z,88.17
2022-12-18T07:30:07.768Z,88.13
2022-12-18T07:31:07.737Z,88.07
2022-12-18T07:32:07.831Z,88.02
2022-12-18T07:33:07.726Z,88.02
2022-12-18T07:34:07.713Z,88.38
2022-12-18T07:35:07.753Z,88.38
2022-12-18T07:36:07.704Z,88.38
2022-12-18T07:37:07.665Z,88.38
2022-12-18T07:38:07.693Z,88.38
2022-12-18T07:39:07.854Z,88.38
2022-12-18T07:40:07.862Z,88.28
2022-12-18T07:41:07.623Z,88.59
2022-12-18T07:42:07.944Z,89.12
2022-12-18T07:43:07.595Z,88.91
2022-12-18T07:44:07.608Z,88.38
2022-12-18T07:45:07.561Z,88.07
2022-12-18T07:46:07.735Z,88.28
2022-12-18T07:47:11.814Z,88.28
2022-12-18T07:48:07.577Z,88.49
2022-12-18T07:49:07.526Z,88.59
2022-12-18T07:50:07.646Z,88.70
2022-12-18T07:51:07.487Z,88.91
2022-12-18T07:52:07.495Z,89.01
2022-12-18T07:53:07.462Z,88.91
2022-12-18T07:54:07.480Z,88.76
2022-12-18T07:55:07.661Z,88.66
2022-12-18T07:57:16.427Z,88.55
2022-12-18T07:58:08.451Z,88.45
2022-12-18T07:59:07.498Z,88.45
2022-12-18T08:00:07.400Z,88.55
2022-12-18T08:01:07.569Z,88.24
2022-12-18T08:02:07.462Z,87.82
2022-12-18T08:03:07.384Z,87.60
2022-12-18T08:04:07.347Z,87.60
2022-12-18T08:05:08.775Z,87.71
2022-12-18T08:06:07.617Z,87.92
2022-12-18T08:07:07.324Z,87.92
2022-12-18T08:08:07.320Z,87.92
2022-12-18T08:09:07.372Z,88.02
2022-12-18T08:10:07.726Z,87.67
2022-12-18T08:11:07.244Z,87.46
2022-12-18T08:12:07.472Z,87.25
2022-12-18T08:13:07.251Z,87.19
2022-12-18T08:14:07.241Z,87.82
2022-12-18T08:15:07.180Z,88.13
2022-12-18T08:16:07.269Z,88.13
2022-12-18T08:17:07.621Z,88.24
2022-12-18T08:18:12.720Z,88.24
2022-12-18T08:19:08.268Z,88.34
2022-12-18T08:20:07.539Z,88.55
2022-12-18T08:21:07.378Z,88.66
2022-12-18T08:22:07.235Z,88.55
2022-12-18T08:23:07.086Z,88.66
2022-12-18T08:24:07.734Z,88.66
2022-12-18T08:25:07.095Z,88.87
2022-12-18T08:26:07.082Z,89.32
2022-12-18T08:27:28.414Z,89.54
2022-12-18T08:28:08.082Z,89.64
2022-12-18T08:29:07.301Z,89.64
2022-12-18T08:30:07.034Z,89.60
2022-12-18T08:31:07.104Z,89.39
2022-12-18T08:32:07.045Z,89.29
2022-12-18T08:33:07.278Z,89.29
2022-12-18T08:34:07.118Z,89.18
2022-12-18T08:35:06.968Z,89.07
2022-12-18T08:36:06.949Z,88.87
2022-12-18T08:37:07.030Z,88.76
2022-12-18T08:38:06.944Z,88.97
2022-12-18T08:39:06.889Z,88.97
2022-12-18T08:40:07.032Z,88.87
2022-12-18T08:41:06.884Z,88.93
2022-12-18T08:42:10.238Z,88.72
2022-12-18T08:43:06.937Z,88.45
2022-12-18T08:44:06.863Z,88.87
2022-12-18T08:45:06.829Z,89.29
2022-12-18T08:46:13.973Z,89.50
2022-12-18T08:47:06.790Z,89.60
2022-12-18T08:48:06.808Z,89.71
2022-12-18T08:49:06.776Z,89.81
2022-12-18T08:50:06.815Z,89.81
2022-12-18T08:51:06.787Z,89.92
2022-12-18T08:52:06.795Z,90.02
2022-12-18T08:53:06.729Z,90.12
2022-12-18T08:54:06.869Z,89.87
2022-12-18T08:55:06.694Z,89.25
2022-12-18T08:56:06.724Z,89.14
2022-12-18T08:57:06.680Z,89.04
2022-12-18T08:58:06.932Z,89.04
2022-12-18T08:59:06.644Z,89.04
2022-12-18T09:00:06.654Z,88.93
2022-12-18T09:01:06.695Z,88.82
2022-12-18T09:02:06.860Z,88.82
2022-12-18T09:03:06.783Z,88.72
2022-12-18T09:04:07.393Z,88.62
2022-12-18T09:05:06.577Z,90.40
2022-12-18T09:06:06.618Z,91.41
2022-12-18T09:07:06.575Z,91.52
2022-12-18T09:08:06.568Z,89.84
2022-12-18T09:09:06.611Z,88.47
2022-12-18T09:10:06.504Z,88.16
2022-12-18T09:11:06.748Z,88.16
2022-12-18T09:12:06.495Z,88.05
2022-12-18T09:13:06.492Z,87.74
2022-12-18T09:14:06.561Z,87.63
2022-12-18T09:15:06.482Z,87.32
2022-12-18T09:16:06.433Z,87.00
2022-12-18T09:17:06.523Z,86.90
2022-12-18T09:18:06.399Z,86.90
2022-12-18T09:19:06.509Z,87.11
2022-12-18T09:20:06.379Z,87.21
2022-12-18T09:21:06.397Z,87.21
2022-12-18T09:22:06.360Z,87.11
2022-12-18T09:23:06.468Z,87.11
2022-12-18T09:24:08.960Z,87.11
2022-12-18T09:25:06.416Z,87.21
2022-12-18T09:26:07.094Z,86.90
2022-12-18T09:27:06.344Z,87.00
2022-12-18T09:28:06.329Z,87.11
2022-12-18T09:29:06.283Z,87.21
2022-12-18T09:30:07.506Z,87.21
2022-12-18T09:31:06.303Z,87.21
2022-12-18T09:32:06.270Z,87.42
2022-12-18T09:33:06.247Z,87.52
2022-12-18T09:34:06.240Z,87.63
2022-12-18T09:35:06.263Z,87.74
2022-12-18T09:36:06.207Z,87.28
2022-12-18T09:37:06.250Z,86.96
2022-12-18T09:38:06.176Z,87.07
2022-12-18T09:39:08.485Z,87.17
2022-12-18T09:40:06.167Z,87.17
2022-12-18T09:41:06.174Z,87.80
2022-12-18T09:42:06.120Z,88.01
2022-12-18T09:43:07.329Z,88.54
2022-12-18T09:44:06.123Z,87.97
2022-12-18T09:45:06.148Z,87.55
2022-12-18T09:46:06.094Z,87.45
2022-12-18T09:47:06.082Z,87.34
2022-12-18T09:48:06.028Z,87.66
2022-12-18T09:49:06.102Z,88.39
2022-12-18T09:50:06.169Z,87.97
2022-12-18T09:51:06.212Z,88.07
2022-12-18T09:52:05.990Z,87.66
2022-12-18T09:53:06.008Z,87.34
2022-12-18T09:54:05.998Z,87.55
2022-12-18T09:55:05.975Z,87.41
2022-12-18T09:56:06.262Z,86.88
2022-12-18T09:57:06.030Z,86.57
2022-12-18T09:58:05.900Z,86.57
2022-12-18T09:59:05.949Z,86.68
2022-12-18T10:00:05.935Z,86.36
2022-12-18T10:01:05.917Z,86.25
2022-12-18T10:02:05.941Z,86.05
2022-12-18T10:03:05.974Z,85.94
2022-12-18T10:04:05.884Z,85.77
2022-12-18T10:05:05.850Z,85.56
2022-12-18T10:06:05.838Z,86.08
2022-12-18T10:07:09.314Z,86.19
2022-12-18T10:08:05.769Z,86.19
2022-12-18T10:09:05.836Z,86.40
2022-12-18T10:10:05.779Z,86.40
2022-12-18T10:11:05.748Z,86.29
2022-12-18T10:12:05.726Z,86.40
2022-12-18T10:13:05.838Z,86.08
2022-12-18T10:14:05.729Z,85.98
2022-12-18T10:15:05.748Z,86.19
2022-12-18T10:16:05.723Z,86.71
2022-12-18T10:17:05.694Z,86.88
2022-12-18T10:18:05.691Z,86.68
2022-12-18T10:19:05.672Z,86.36
2022-12-18T10:20:05.610Z,85.63
2022-12-18T10:21:05.627Z,85.42
2022-12-18T10:22:05.663Z,85.10
2022-12-18T10:23:05.609Z,85.31
2022-12-18T10:24:05.598Z,85.35
2022-12-18T10:25:05.630Z,85.35
2022-12-18T10:26:05.547Z,85.66
2022-12-18T10:27:05.586Z,85.25
2022-12-18T10:28:05.529Z,85.35
2022-12-18T10:29:05.956Z,85.46
2022-12-18T10:30:05.535Z,85.35
2022-12-18T10:31:05.590Z,85.56
2022-12-18T10:32:05.494Z,85.98
2022-12-18T10:33:05.473Z,86.29
2022-12-18T10:34:05.493Z,86.29
2022-12-18T10:35:05.502Z,86.08
2022-12-18T10:36:05.566Z,85.77
2022-12-18T10:37:05.445Z,85.88
2022-12-18T10:38:05.410Z,86.19
2022-12-18T10:39:05.463Z,86.71
2022-12-18T10:40:05.408Z,86.61
2022-12-18T10:41:05.413Z,85.94
2022-12-18T10:42:05.338Z,85.63
2022-12-18T10:43:05.369Z,85.52
2022-12-18T10:44:05.307Z,85.31
2022-12-18T10:45:05.335Z,85.10
2022-12-18T10:46:05.325Z,85.21
2022-12-18T10:47:10.224Z,85.10
2022-12-18T10:48:06.264Z,85.21
2022-12-18T10:49:05.283Z,85.10
2022-12-18T10:50:05.232Z,85.00
2022-12-18T10:51:13.687Z,85.00
2022-12-18T10:52:06.230Z,84.89
2022-12-18T10:53:05.360Z,85.10
2022-12-18T10:54:06.433Z,86.36
2022-12-18T10:55:05.213Z,86.57
2022-12-18T10:56:05.162Z,86.68
2022-12-18T10:57:05.203Z,85.83
2022-12-18T10:58:05.159Z,85.10
2022-12-18T10:59:05.173Z,84.58
2022-12-18T11:00:05.145Z,84.79
2022-12-18T11:01:05.136Z,84.68
2022-12-18T11:02:05.149Z,84.27
2022-12-18T11:03:05.199Z,84.27
2022-12-18T11:04:05.144Z,84.37
2022-12-18T11:05:05.106Z,84.22
2022-12-18T11:06:05.072Z,84.22
2022-12-18T11:07:05.050Z,84.12
2022-12-18T11:08:05.023Z,83.91
2022-12-18T11:09:12.245Z,83.49
2022-12-18T11:10:06.006Z,82.97
2022-12-18T11:11:05.029Z,83.28
2022-12-18T11:12:05.936Z,83.49
2022-12-18T11:13:04.977Z,83.53
2022-12-18T11:14:04.952Z,83.64
2022-12-18T11:15:04.958Z,83.64
2022-12-18T11:16:04.932Z,83.84
2022-12-18T11:18:05.875Z,84.16
2022-12-18T11:19:04.896Z,83.95
2022-12-18T11:20:04.854Z,84.01
2022-12-18T11:21:04.877Z,84.33
2022-12-18T11:22:04.876Z,84.12
2022-12-18T11:23:04.873Z,83.49
2022-12-18T11:24:04.802Z,82.97
2022-12-18T11:26:05.810Z,83.07
2022-12-18T11:27:04.789Z,82.97
2022-12-18T11:28:04.800Z,82.97
2022-12-18T11:29:04.788Z,83.22
2022-12-18T11:30:04.749Z,83.53
2022-12-18T11:31:04.781Z,83.84
2022-12-18T11:32:04.725Z,83.95
2022-12-18T11:33:05.680Z,84.16
2022-12-18T11:34:28.226Z,84.27
2022-12-18T11:35:05.697Z,84.27
2022-12-18T11:36:04.699Z,83.95
2022-12-18T11:37:04.664Z,84.05
2022-12-18T11:38:04.629Z,84.27
2022-12-18T11:39:04.690Z,84.37
2022-12-18T11:40:04.599Z,84.47
2022-12-18T11:41:04.636Z,84.47
2022-12-18T11:42:04.580Z,84.37
2022-12-18T11:43:04.579Z,84.68
2022-12-18T11:44:04.569Z,84.79
2022-12-18T11:45:04.585Z,84.47
2022-12-18T11:46:04.601Z,84.27
2022-12-18T11:47:04.631Z,84.37
2022-12-18T11:48:04.596Z,84.37
2022-12-18T11:49:04.519Z,84.37
2022-12-18T11:50:04.503Z,84.37
2022-12-18T11:51:04.492Z,84.58
2022-12-18T11:52:04.446Z,84.79
2022-12-18T11:53:06.491Z,84.79
2022-12-18T11:54:04.432Z,84.47
2022-12-18T11:55:04.461Z,84.16
2022-12-18T11:56:04.420Z,84.05
2022-12-18T11:57:04.418Z,83.98
2022-12-18T11:58:04.451Z,84.51
2022-12-18T11:59:04.391Z,84.41
2022-12-18T12:00:04.430Z,84.51
2022-12-18T12:01:04.392Z,85.03
2022-12-18T12:02:04.467Z,85.14
2022-12-18T12:03:04.476Z,84.93
2022-12-18T12:04:04.320Z,85.03
2022-12-18T12:05:04.324Z,85.14
2022-12-18T12:06:04.288Z,85.14
2022-12-18T12:07:04.302Z,85.14
2022-12-18T12:08:04.285Z,85.03
2022-12-18T12:09:04.251Z,85.03
2022-12-18T12:10:04.252Z,85.25
2022-12-18T12:11:04.264Z,85.46
2022-12-18T12:12:04.264Z,85.63
2022-12-18T12:13:04.203Z,85.73
2022-12-18T12:14:04.180Z,86.05
2022-12-18T12:15:04.199Z,86.05
2022-12-18T12:16:04.183Z,85.63
2022-12-18T12:17:04.220Z,84.68
2022-12-18T12:18:09.628Z,84.27
2022-12-18T12:19:05.144Z,84.27
2022-12-18T12:20:04.147Z,84.47
2022-12-18T12:21:04.140Z,84.16
2022-12-18T12:22:05.088Z,83.84
2022-12-18T12:23:04.075Z,83.84
2022-12-18T12:24:04.072Z,84.16
2022-12-18T12:25:04.063Z,84.16
2022-12-18T12:26:04.032Z,84.16
2022-12-18T12:27:04.022Z,84.16
2022-12-18T12:28:04.011Z,84.16
2022-12-18T12:29:04.030Z,83.84
2022-12-18T12:30:03.973Z,83.84
2022-12-18T12:31:04.053Z,83.95
2022-12-18T12:32:04.042Z,84.05
2022-12-18T12:33:03.985Z,83.84
2022-12-18T12:34:03.917Z,83.74
2022-12-18T12:35:09.486Z,83.95
2022-12-18T12:36:04.908Z,84.05
2022-12-18T12:37:03.923Z,84.05
2022-12-18T12:38:03.866Z,84.05
2022-12-18T12:39:03.898Z,84.37
2022-12-18T12:40:15.241Z,84.89
2022-12-18T12:41:04.893Z,84.47
2022-12-18T12:42:03.862Z,84.37
2022-12-18T12:43:03.876Z,84.89
2022-12-18T12:44:03.822Z,84.79
2022-12-18T12:45:03.829Z,84.75
2022-12-18T12:46:03.901Z,84.54
2022-12-18T12:47:03.809Z,84.75
2022-12-18T12:48:03.761Z,84.64
2022-12-18T12:49:03.776Z,84.44
2022-12-18T12:50:04.531Z,84.44
2022-12-18T12:51:03.749Z,83.81
2022-12-18T12:52:04.029Z,83.70
2022-12-18T12:53:03.739Z,83.91
2022-12-18T12:54:04.623Z,83.91
2022-12-18T12:55:03.764Z,83.28
2022-12-18T12:56:03.654Z,83.59